createdAt,value
2022-11-12T00:02:06.460Z,13.40
2022-11-12T00:04:53.083Z,13.73
2022-11-12T00:07:40.254Z,13.10
2022-11-12T00:10:27.225Z,13.90
2022-11-12T00:13:14.685Z,13.88
2022-11-12T00:16:01.490Z,12.93
2022-11-12T00:18:49.262Z,13.70
2022-11-12T00:21:36.131Z,13.38
2022-11-12T00:24:23.192Z,12.57
2022-11-12T00:27:09.552Z,13.52
2022-11-12T00:29:56.887Z,13.38
2022-11-12T00:32:43.657Z,13.43
2022-11-12T00:35:33.008Z,13.38
2022-11-12T00:38:19.536Z,14.15
2022-11-12T00:41:07.618Z,13.88
2022-11-12T00:43:54.903Z,15.05
2022-11-12T00:46:41.793Z,14.15
2022-11-12T00:49:28.436Z,13.95
2022-11-12T00:52:15.689Z,14.68
2022-11-12T00:55:02.342Z,13.77
2022-11-12T00:57:49.873Z,14.73
2022-11-12T01:00:36.595Z,13.38
2022-11-12T01:03:23.764Z,15.93
2022-11-12T01:06:16.957Z,14.30
2022-11-12T01:09:03.852Z,13.07
2022-11-12T01:11:50.463Z,15.63
2022-11-12T01:14:37.616Z,14.52
2022-11-12T01:17:24.291Z,15.27
2022-11-12T01:20:11.185Z,15.02
2022-11-12T01:22:58.104Z,13.88
2022-11-12T01:25:44.860Z,14.98
2022-11-12T01:28:31.907Z,15.63
2022-11-12T01:31:23.075Z,14.68
2022-11-12T01:34:10.454Z,15.02
2022-11-12T01:36:57.271Z,14.75
2022-11-12T01:39:43.720Z,15.38
2022-11-12T01:42:32.435Z,14.25
2022-11-12T01:45:19.295Z,14.27
2022-11-12T01:48:06.015Z,15.00
2022-11-12T01:50:54.380Z,13.43
2022-11-12T01:53:47.056Z,14.32
2022-11-12T01:56:34.324Z,14.90
2022-11-12T01:59:28.320Z,14.52
2022-11-12T02:02:15.316Z,14.38
2022-11-12T02:05:04.957Z,14.32
2022-11-12T02:07:53.254Z,16.48
2022-11-12T02:10:41.149Z,17.10
2022-11-12T02:13:46.556Z,17.52
2022-11-12T02:16:39.010Z,17.85
2022-11-12T02:19:26.716Z,17.00
2022-11-12T02:22:13.304Z,16.52
2022-11-12T02:24:59.919Z,15.07
2022-11-12T02:27:51.951Z,14.70
2022-11-12T02:30:47.842Z,13.88
2022-11-12T02:33:34.558Z,14.10
2022-11-12T02:36:21.297Z,13.68
2022-11-12T02:39:08.075Z,14.95
2022-11-12T02:41:54.737Z,13.75
2022-11-12T02:44:41.814Z,15.25
2022-11-12T02:47:28.399Z,15.75
2022-11-12T02:50:15.839Z,14.20
2022-11-12T02:53:02.493Z,15.70
2022-11-12T02:55:49.628Z,16.25
2022-11-12T02:58:36.077Z,15.43
2022-11-12T03:01:23.248Z,15.13
2022-11-12T03:04:09.948Z,15.38
2022-11-12T03:06:57.013Z,14.70
2022-11-12T03:09:43.902Z,15.38
2022-11-12T03:12:32.997Z,15.02
2022-11-12T03:15:20.393Z,14.40
2022-11-12T03:18:07.439Z,13.73
2022-11-12T03:20:54.005Z,14.40
2022-11-12T03:23:42.465Z,15.30
2022-11-12T03:26:34.494Z,14.70
2022-11-12T03:29:22.426Z,13.93
2022-11-12T03:32:09.097Z,14.43
2022-11-12T03:34:56.018Z,14.50
2022-11-12T03:37:42.346Z,15.05
2022-11-12T03:40:30.120Z,15.32
2022-11-12T03:43:16.541Z,13.90
2022-11-12T03:46:03.432Z,14.07
2022-11-12T03:48:50.326Z,14.77
2022-11-12T03:51:38.659Z,14.63
2022-11-12T03:54:24.989Z,14.27
2022-11-12T03:57:12.021Z,15.25
2022-11-12T03:59:58.835Z,14.75
2022-11-12T04:02:45.922Z,14.52
2022-11-12T04:05:51.520Z,14.25
2022-11-12T04:08:38.621Z,15.50
2022-11-12T04:11:25.270Z,14.85
2022-11-12T04:14:11.987Z,14.10
2022-11-12T04:17:17.571Z,14.55
2022-11-12T04:20:23.705Z,13.90
2022-11-12T04:23:10.035Z,14.68
2022-11-12T04:26:15.628Z,13.00
2022-11-12T04:29:20.992Z,14.02
2022-11-12T04:32:07.967Z,13.38
2022-11-12T04:34:55.150Z,14.27
2022-11-12T04:37:45.022Z,13.68
2022-11-12T04:40:50.677Z,13.48
2022-11-12T04:43:55.907Z,13.38
2022-11-12T04:46:42.429Z,13.93
2022-11-12T04:49:29.661Z,13.63
2022-11-12T04:52:17.359Z,14.38
2022-11-12T04:55:04.727Z,13.65
2022-11-12T04:57:54.865Z,15.13
2022-11-12T05:00:46.635Z,13.80
2022-11-12T05:03:33.545Z,13.73
2022-11-12T05:06:39.170Z,13.52
2022-11-12T05:09:28.930Z,13.10
2022-11-12T05:12:15.849Z,13.63
2022-11-12T05:15:03.414Z,13.23
2022-11-12T05:17:50.704Z,14.13
2022-11-12T05:20:37.464Z,13.75
2022-11-12T05:23:24.212Z,14.25
2022-11-12T05:26:11.015Z,13.07
2022-11-12T05:28:58.090Z,14.18
2022-11-12T05:31:44.937Z,14.73
2022-11-12T05:34:32.749Z,13.80
2022-11-12T05:37:19.987Z,14.07
2022-11-12T05:40:07.685Z,15.07
2022-11-12T05:42:54.572Z,14.15
2022-11-12T05:45:45.118Z,14.20
2022-11-12T05:48:32.134Z,14.02
2022-11-12T05:51:19.378Z,12.93
2022-11-12T05:54:06.291Z,13.60
2022-11-12T05:56:53.903Z,13.27
2022-11-12T05:59:40.292Z,13.93
2022-11-12T06:02:27.514Z,13.15
2022-11-12T06:05:14.179Z,13.07
2022-11-12T06:08:01.007Z,13.30
2022-11-12T06:10:52.770Z,14.57
2022-11-12T06:13:39.834Z,14.07
2022-11-12T06:16:26.899Z,14.25
2022-11-12T06:19:14.064Z,13.57
2022-11-12T06:22:00.743Z,13.38
2022-11-12T06:24:47.849Z,14.20
2022-11-12T06:27:34.600Z,13.48
2022-11-12T06:30:25.497Z,14.13
2022-11-12T06:33:13.266Z,13.38
2022-11-12T06:36:06.962Z,13.48
2022-11-12T06:38:53.644Z,13.75
2022-11-12T06:41:40.525Z,13.00
2022-11-12T06:44:27.101Z,13.60
2022-11-12T06:47:14.478Z,13.30
2022-11-12T06:50:02.556Z,12.27
2022-11-12T06:52:52.222Z,12.80
2022-11-12T06:55:42.336Z,13.15
2022-11-12T06:58:29.134Z,12.80
2022-11-12T07:01:17.725Z,13.00
2022-11-12T07:04:05.131Z,13.85
2022-11-12T07:06:52.019Z,12.07
2022-11-12T07:09:38.628Z,12.43
2022-11-12T07:12:25.350Z,12.10
2022-11-12T07:15:12.178Z,13.07
2022-11-12T07:17:58.887Z,11.88
2022-11-12T07:20:45.572Z,11.73
2022-11-12T07:23:34.934Z,11.38
2022-11-12T07:26:29.897Z,10.95
2022-11-12T07:29:30.098Z,11.48
2022-11-12T07:32:22.887Z,12.68
2022-11-12T07:35:10.346Z,11.80
2022-11-12T07:37:59.776Z,10.77
2022-11-12T07:40:46.176Z,10.60
2022-11-12T07:43:35.619Z,11.38
2022-11-12T07:46:26.051Z,10.38
2022-11-12T07:49:13.106Z,10.15
2022-11-12T07:51:59.885Z,10.63
2022-11-12T07:54:46.743Z,10.35
2022-11-12T07:57:34.267Z,10.20
2022-11-12T08:00:22.010Z,11.02
2022-11-12T08:03:08.167Z,10.25
2022-11-12T08:05:55.277Z,9.40
2022-11-12T08:08:41.755Z,9.48
2022-11-12T08:11:28.769Z,9.35
2022-11-12T08:14:15.563Z,9.02
2022-11-12T08:17:02.592Z,8.93
2022-11-12T08:19:48.885Z,9.27
2022-11-12T08:22:35.884Z,8.55
2022-11-12T08:25:22.281Z,8.73
2022-11-12T08:28:09.717Z,9.48
2022-11-12T08:30:57.135Z,8.27
2022-11-12T08:33:44.016Z,7.88
2022-11-12T08:36:30.509Z,8.98
2022-11-12T08:39:17.513Z,8.48
2022-11-12T08:42:04.115Z,8.02
2022-11-12T08:44:51.360Z,7.70
2022-11-12T08:47:37.623Z,8.45
2022-11-12T08:50:24.752Z,7.22
2022-11-12T08:53:14.203Z,7.60
2022-11-12T08:56:01.109Z,7.18
2022-11-12T08:58:47.811Z,7.55
2022-11-12T09:01:35.165Z,7.45
2022-11-12T09:04:21.643Z,7.03
2022-11-12T09:07:09.657Z,6.80
2022-11-12T09:09:56.534Z,7.40
2022-11-12T09:12:43.598Z,7.45
2022-11-12T09:15:38.728Z,8.25
2022-11-12T09:18:26.352Z,7.95
2022-11-12T09:21:13.631Z,8.20
2022-11-12T09:24:00.465Z,7.72
2022-11-12T09:26:48.309Z,6.65
2022-11-12T09:29:35.516Z,5.30
2022-11-12T09:32:23.450Z,5.78
2022-11-12T09:35:11.050Z,5.47
2022-11-12T09:37:59.538Z,5.30
2022-11-12T09:40:52.461Z,4.93
2022-11-12T09:43:54.207Z,5.53
2022-11-12T09:46:54.839Z,5.43
2022-11-12T09:49:50.874Z,5.93
2022-11-12T09:52:39.634Z,5.85
2022-11-12T09:55:48.440Z,5.60
2022-11-12T09:58:35.993Z,5.05
2022-11-12T10:02:16.161Z,5.18
2022-11-12T10:05:37.083Z,5.55
2022-11-12T10:08:38.724Z,5.90
2022-11-12T10:12:12.591Z,5.50
2022-11-12T10:15:45.539Z,5.53
2022-11-12T10:18:38.328Z,5.97
2022-11-12T10:21:49.814Z,6.25
2022-11-12T10:24:39.431Z,6.30
2022-11-12T10:27:40.369Z,5.97
2022-11-12T10:30:27.226Z,5.80
2022-11-12T10:33:16.759Z,6.20
2022-11-12T10:36:29.197Z,5.68
2022-11-12T10:39:39.103Z,6.57
2022-11-12T10:42:26.056Z,7.05
2022-11-12T10:45:31.726Z,5.85
2022-11-12T10:48:29.793Z,6.40
2022-11-12T10:51:29.619Z,5.97
2022-11-12T10:54:42.906Z,6.22
2022-11-12T10:57:30.121Z,6.47
2022-11-12T11:00:21.242Z,6.63
2022-11-12T11:03:20.001Z,7.33
2022-11-12T11:06:28.176Z,7.45
2022-11-12T11:09:17.527Z,7.03
2022-11-12T11:12:06.460Z,7.20
2022-11-12T11:15:25.417Z,9.88
2022-11-12T11:18:14.431Z,10.60
2022-11-12T11:21:20.711Z,10.20
2022-11-12T11:25:01.864Z,8.63
2022-11-12T11:28:28.054Z,9.13
2022-11-12T11:31:30.069Z,11.20
2022-11-12T11:34:22.492Z,9.63
2022-11-12T11:37:29.971Z,7.20
2022-11-12T11:40:40.972Z,7.00
2022-11-12T11:43:51.882Z,7.32
2022-11-12T11:46:59.503Z,6.53
2022-11-12T11:50:09.067Z,8.68
2022-11-12T11:53:23.388Z,7.43
2022-11-12T11:56:26.567Z,7.72
2022-11-12T11:59:47.154Z,7.47
2022-11-12T12:03:04.218Z,8.05
2022-11-12T12:06:13.972Z,7.38
2022-11-12T12:09:23.274Z,7.80
2022-11-12T12:12:09.991Z,7.53
2022-11-12T12:15:11.623Z,8.05
2022-11-12T12:18:27.218Z,8.13
2022-11-12T12:21:19.998Z,8.23
2022-11-12T12:24:39.417Z,9.60
2022-11-12T12:27:37.589Z,10.02
2022-11-12T12:30:25.315Z,10.13
2022-11-12T12:34:03.844Z,8.50
2022-11-12T12:37:03.355Z,9.68
2022-11-12T12:40:01.105Z,8.43
2022-11-12T12:43:01.941Z,8.57
2022-11-12T12:45:48.740Z,10.18
2022-11-12T12:48:42.285Z,11.43
2022-11-12T12:51:33.332Z,11.45
2022-11-12T12:54:38.715Z,12.65
2022-11-12T12:57:39.086Z,12.82
2022-11-12T13:00:41.438Z,14.35
2022-11-12T13:03:46.700Z,13.98
2022-11-12T13:06:54.298Z,13.82
2022-11-12T13:09:41.514Z,14.90
2022-11-12T13:13:28.985Z,13.48
2022-11-12T13:16:51.413Z,12.70
2022-11-12T13:20:19.853Z,11.77
2022-11-12T13:23:12.445Z,11.85
2022-11-12T13:26:57.850Z,13.82
2022-11-12T13:29:47.406Z,12.65
2022-11-12T13:32:42.107Z,14.77
2022-11-12T13:35:32.633Z,13.25
2022-11-12T13:38:20.497Z,12.77
2022-11-12T13:41:44.046Z,10.98
2022-11-12T13:44:31.998Z,13.23
2022-11-12T13:47:29.178Z,14.50
2022-11-12T13:50:21.921Z,15.40
2022-11-12T13:53:14.660Z,14.73
2022-11-12T13:56:01.279Z,15.75
2022-11-12T13:58:48.005Z,15.85
2022-11-12T14:01:34.840Z,17.88
2022-11-12T14:04:25.118Z,16.92
2022-11-12T14:07:53.971Z,14.00
2022-11-12T14:11:38.568Z,15.50
2022-11-12T14:14:39.103Z,17.73
2022-11-12T14:17:47.855Z,16.67
2022-11-12T14:20:53.593Z,17.23
2022-11-12T14:23:42.159Z,17.35
2022-11-12T14:26:43.567Z,17.77
2022-11-12T14:29:35.303Z,16.27
2022-11-12T14:32:23.143Z,17.20
2022-11-12T14:35:35.046Z,16.38
2022-11-12T14:38:33.577Z,17.60
2022-11-12T14:41:34.065Z,17.38
2022-11-12T14:44:33.810Z,16.25
2022-11-12T14:47:20.815Z,13.32
2022-11-12T14:50:40.441Z,12.60
2022-11-12T14:53:38.265Z,15.07
2022-11-12T14:56:47.835Z,12.68
2022-11-12T14:59:36.145Z,14.48
2022-11-12T15:02:37.672Z,14.63
2022-11-12T15:05:34.273Z,14.63
2022-11-12T15:08:37.200Z,13.90
2022-11-12T15:11:30.875Z,13.35
2022-11-12T15:14:24.760Z,14.23
2022-11-12T15:17:31.391Z,15.88
2022-11-12T15:20:19.920Z,11.15
2022-11-12T15:23:15.141Z,14.23
2022-11-12T15:26:02.716Z,14.57
2022-11-12T15:29:11.922Z,14.85
2022-11-12T15:32:24.992Z,16.15
2022-11-12T15:35:26.889Z,15.70
2022-11-12T15:38:31.964Z,17.55
2022-11-12T15:41:31.300Z,18.50
2022-11-12T15:44:18.187Z,19.45
2022-11-12T15:47:10.008Z,16.42
2022-11-12T15:49:59.312Z,19.80
2022-11-12T15:52:46.704Z,16.40
2022-11-12T15:55:38.968Z,15.68
2022-11-12T15:58:35.394Z,16.70
2022-11-12T16:01:24.493Z,18.95
2022-11-12T16:04:13.901Z,17.58
2022-11-12T16:07:00.769Z,16.85
2022-11-12T16:09:47.982Z,23.02
2022-11-12T16:12:35.113Z,21.50
2022-11-12T16:15:25.969Z,18.13
2022-11-12T16:18:12.872Z,17.45
2022-11-12T16:20:59.771Z,19.50
2022-11-12T16:23:46.744Z,19.25
2022-11-12T16:26:34.627Z,20.13
2022-11-12T16:29:21.428Z,18.75
2022-11-12T16:32:16.059Z,18.55
2022-11-12T16:35:02.428Z,21.25
2022-11-12T16:37:50.571Z,20.92
2022-11-12T16:40:37.057Z,20.70
2022-11-12T16:43:23.909Z,20.80
2022-11-12T16:46:40.416Z,22.13
2022-11-12T16:49:27.360Z,20.38
2022-11-12T16:52:14.074Z,21.15
2022-11-12T16:55:05.026Z,21.15
2022-11-12T16:57:51.795Z,18.75
2022-11-12T17:00:39.232Z,25.17
2022-11-12T17:03:26.072Z,20.50
2022-11-12T17:06:13.302Z,22.10
2022-11-12T17:09:00.247Z,25.08
2022-11-12T17:11:46.995Z,23.35
2022-11-12T17:14:33.696Z,20.45
2022-11-12T17:17:20.965Z,19.50
2022-11-12T17:20:09.063Z,18.52
2022-11-12T17:22:56.318Z,20.80
2022-11-12T17:25:43.128Z,21.60
2022-11-12T17:28:31.595Z,21.58
2022-11-12T17:31:23.377Z,22.60
2022-11-12T17:34:11.408Z,21.02
2022-11-12T17:36:58.482Z,19.58
2022-11-12T17:39:45.595Z,24.48
2022-11-12T17:42:32.183Z,20.98
2022-11-12T17:45:18.479Z,23.05
2022-11-12T17:48:06.002Z,26.05
2022-11-12T17:51:07.226Z,28.63
2022-11-12T17:53:54.409Z,20.25
2022-11-12T17:56:41.227Z,24.23
2022-11-12T17:59:27.820Z,23.25
2022-11-12T18:02:14.550Z,24.23
2022-11-12T18:05:01.275Z,24.55
2022-11-12T18:07:47.802Z,27.15
2022-11-12T18:10:34.584Z,25.73
2022-11-12T18:13:21.547Z,27.98
2022-11-12T18:16:29.482Z,29.58
2022-11-12T18:19:16.542Z,30.73
2022-11-12T18:22:03.093Z,28.85
2022-11-12T18:24:50.545Z,31.05
2022-11-12T18:27:37.881Z,34.78
2022-11-12T18:30:25.223Z,31.85
2022-11-12T18:33:12.663Z,34.45
2022-11-12T18:36:08.513Z,38.08
2022-11-12T18:38:56.149Z,35.53
2022-11-12T18:41:43.087Z,34.85
2022-11-12T18:44:29.816Z,37.17
2022-11-12T18:47:16.568Z,34.45
2022-11-12T18:50:08.470Z,32.45
2022-11-12T18:52:55.888Z,33.97
2022-11-12T18:55:42.436Z,30.90
2022-11-12T18:58:34.904Z,29.75
2022-11-12T19:01:24.027Z,29.95
2022-11-12T19:04:12.219Z,25.73
2022-11-12T19:06:59.222Z,26.02
2022-11-12T19:09:46.188Z,26.83
2022-11-12T19:12:32.663Z,25.75
2022-11-12T19:15:26.800Z,28.88
2022-11-12T19:18:17.326Z,25.08
2022-11-12T19:21:09.762Z,26.60
2022-11-12T19:23:58.077Z,25.42
2022-11-12T19:26:45.049Z,23.73
2022-11-12T19:29:32.591Z,24.52
2022-11-12T19:32:19.559Z,23.02
2022-11-12T19:35:07.773Z,22.77
2022-11-12T19:37:54.409Z,21.80
2022-11-12T19:40:41.671Z,19.45
2022-11-12T19:43:28.658Z,20.25
2022-11-12T19:46:15.859Z,18.67
2022-11-12T19:49:02.319Z,17.92
2022-11-12T19:51:49.409Z,18.50
2022-11-12T19:54:36.059Z,21.70
2022-11-12T19:57:23.235Z,19.27
2022-11-12T20:00:11.064Z,18.35
2022-11-12T20:02:59.543Z,19.08
2022-11-12T20:05:46.174Z,19.70
2022-11-12T20:08:33.459Z,19.73
2022-11-12T20:11:20.422Z,18.65
2022-11-12T20:14:07.203Z,16.52
2022-11-12T20:16:53.551Z,18.52
2022-11-12T20:19:41.165Z,17.67
2022-11-12T20:22:32.763Z,19.40
2022-11-12T20:25:23.629Z,19.15
2022-11-12T20:28:10.962Z,20.00
2022-11-12T20:31:24.680Z,18.00
2022-11-12T20:34:13.181Z,17.38
2022-11-12T20:37:00.486Z,17.83
2022-11-12T20:39:47.279Z,16.63
2022-11-12T20:42:34.399Z,16.67
2022-11-12T20:45:21.056Z,14.70
2022-11-12T20:48:08.255Z,16.02
2022-11-12T20:51:23.314Z,17.33
2022-11-12T20:54:11.188Z,17.08
2022-11-12T20:56:59.914Z,17.67
2022-11-12T21:00:15.315Z,17.08
2022-11-12T21:03:03.674Z,16.80
2022-11-12T21:06:05.066Z,17.25
2022-11-12T21:08:52.532Z,17.33
2022-11-12T21:11:39.211Z,17.10
2022-11-12T21:14:25.738Z,16.20
2022-11-12T21:17:12.789Z,16.50
2022-11-12T21:19:59.927Z,15.40
2022-11-12T21:22:46.779Z,16.02
2022-11-12T21:25:40.585Z,15.68
2022-11-12T21:28:27.860Z,16.30
2022-11-12T21:31:27.465Z,16.50
2022-11-12T21:34:14.400Z,16.77
2022-11-12T21:37:01.729Z,16.27
2022-11-12T21:39:49.742Z,16.48
2022-11-12T21:42:35.893Z,15.93
2022-11-12T21:45:23.140Z,16.20
2022-11-12T21:48:09.999Z,17.08
2022-11-12T21:50:56.969Z,17.65
2022-11-12T21:53:44.979Z,17.50
2022-11-12T21:56:33.864Z,17.40
2022-11-12T21:59:20.493Z,18.52
2022-11-12T22:02:08.852Z,16.13
2022-11-12T22:04:55.223Z,17.45
2022-11-12T22:07:41.990Z,18.08
2022-11-12T22:10:28.668Z,17.70
2022-11-12T22:13:30.501Z,16.88
2022-11-12T22:16:23.749Z,15.10
2022-11-12T22:19:11.649Z,16.13
2022-11-12T22:21:58.474Z,17.23
2022-11-12T22:24:45.321Z,17.48
2022-11-12T22:27:34.059Z,18.02
2022-11-12T22:30:28.331Z,15.57
2022-11-12T22:33:17.460Z,15.77
2022-11-12T22:36:13.713Z,16.90
2022-11-12T22:39:09.413Z,16.88
2022-11-12T22:41:59.030Z,17.60
2022-11-12T22:44:45.774Z,16.92
2022-11-12T22:47:51.507Z,16.55
2022-11-12T22:50:59.949Z,17.10
2022-11-12T22:53:58.516Z,15.82
2022-11-12T22:56:49.913Z,16.52
2022-11-12T22:59:55.975Z,16.55
2022-11-12T23:02:54.421Z,16.50
2022-11-12T23:05:42.760Z,17.98
2022-11-12T23:08:49.124Z,18.73
2022-11-12T23:11:38.421Z,16.75
2022-11-12T23:14:35.814Z,16.95
2022-11-12T23:17:24.843Z,16.42
2022-11-12T23:20:13.851Z,17.80
2022-11-12T23:23:04.029Z,16.25
2022-11-12T23:25:55.184Z,16.90
2022-11-12T23:28:54.073Z,17.17
2022-11-12T23:31:40.843Z,16.23
2022-11-12T23:34:32.020Z,16.75
2022-11-12T23:37:18.834Z,17.45
2022-11-12T23:40:08.194Z,19.67
2022-11-12T23:42:57.343Z,18.65
2022-11-12T23:45:49.866Z,19.13
2022-11-12T23:48:41.656Z,19.65
2022-11-12T23:51:28.794Z,18.60
2022-11-12T23:54:19.438Z,19.55
2022-11-12T23:57:09.224Z,18.83
